sensor_id;sensor_type;location;lat;lon;timestamp;P1;durP1;ratioP1;P2;durP2;ratioP2
13801;SDS011;6972;51.518;6.918;2022-08-05T00:02:08;12.15;;;4.13;;
13801;SDS011;6972;51.518;6.918;2022-08-05T00:04:33;6.78;;;3.53;;
13801;SDS011;6972;51.518;6.918;2022-08-05T00:06:59;8.25;;;4.03;;
13801;SDS011;6972;51.518;6.918;2022-08-05T00:09:25;5.85;;;3.65;;
13801;SDS011;6972;51.518;6.918;2022-08-05T00:11:50;7.28;;;3.90;;
13801;SDS011;6972;51.518;6.918;2022-08-05T00:14:16;10.23;;;3.70;;
13801;SDS011;6972;51.518;6.918;2022-08-05T00:16:43;6.07;;;3.63;;
13801;SDS011;6972;51.518;6.918;2022-08-05T00:19:09;9.55;;;4.20;;
13801;SDS011;6972;51.518;6.918;2022-08-05T00:21:34;6.88;;;3.70;;
13801;SDS011;6972;51.518;6.918;2022-08-05T00:24:00;9.10;;;3.53;;
13801;SDS011;6972;51.518;6.918;2022-08-05T00:26:26;7.43;;;3.50;;
13801;SDS011;6972;51.518;6.918;2022-08-05T00:28:51;10.05;;;4.28;;
13801;SDS011;6972;51.518;6.918;2022-08-05T00:31:17;9.32;;;3.85;;
13801;SDS011;6972;51.518;6.918;2022-08-05T00:33:43;7.63;;;4.15;;
13801;SDS011;6972;51.518;6.918;2022-08-05T00:36:09;6.03;;;3.63;;
13801;SDS011;6972;51.518;6.918;2022-08-05T00:38:34;11.52;;;4.78;;
13801;SDS011;6972;51.518;6.918;2022-08-05T00:41:03;7.88;;;3.88;;
13801;SDS011;6972;51.518;6.918;2022-08-05T00:43:31;7.80;;;4.15;;
13801;SDS011;6972;51.518;6.918;2022-08-05T00:46:01;7.53;;;3.85;;
13801;SDS011;6972;51.518;6.918;2022-08-05T00:48:27;9.88;;;4.10;;
13801;SDS011;6972;51.518;6.918;2022-08-05T00:50:53;8.82;;;4.25;;
13801;SDS011;6972;51.518;6.918;2022-08-05T00:53:20;7.28;;;4.38;;
13801;SDS011;6972;51.518;6.918;2022-08-05T00:55:46;12.00;;;4.40;;
13801;SDS011;6972;51.518;6.918;2022-08-05T00:58:13;6.95;;;4.38;;
13801;SDS011;6972;51.518;6.918;2022-08-05T01:00:41;8.43;;;4.40;;
13801;SDS011;6972;51.518;6.918;2022-08-05T01:03:07;6.55;;;4.30;;
13801;SDS011;6972;51.518;6.918;2022-08-05T01:05:34;9.73;;;4.40;;
13801;SDS011;6972;51.518;6.918;2022-08-05T01:08:00;5.68;;;4.63;;
13801;SDS011;6972;51.518;6.918;2022-08-05T01:11:01;8.00;;;4.85;;
13801;SDS011;6972;51.518;6.918;2022-08-05T01:19:29;8.05;;;4.53;;
13801;SDS011;6972;51.518;6.918;2022-08-05T01:27:51;9.63;;;5.32;;
13801;SDS011;6972;51.518;6.918;2022-08-05T01:30:41;4.75;;;4.20;;
13801;SDS011;6972;51.518;6.918;2022-08-05T01:33:11;9.15;;;4.70;;
13801;SDS011;6972;51.518;6.918;2022-08-05T01:35:40;9.32;;;5.00;;
13801;SDS011;6972;51.518;6.918;2022-08-05T01:38:09;8.80;;;4.82;;
13801;SDS011;6972;51.518;6.918;2022-08-05T01:40:37;11.68;;;5.22;;
13801;SDS011;6972;51.518;6.918;2022-08-05T01:43:04;8.18;;;5.15;;
13801;SDS011;6972;51.518;6.918;2022-08-05T01:45:31;9.52;;;5.15;;
13801;SDS011;6972;51.518;6.918;2022-08-05T01:47:58;9.25;;;5.22;;
13801;SDS011;6972;51.518;6.918;2022-08-05T01:50:26;10.55;;;5.40;;
13801;SDS011;6972;51.518;6.918;2022-08-05T01:52:58;8.52;;;5.40;;
13801;SDS011;6972;51.518;6.918;2022-08-05T01:55:26;7.63;;;5.45;;
13801;SDS011;6972;51.518;6.918;2022-08-05T01:57:54;10.35;;;5.22;;
13801;SDS011;6972;51.518;6.918;2022-08-05T02:00:23;8.30;;;5.82;;
13801;SDS011;6972;51.518;6.918;2022-08-05T02:02:54;9.02;;;5.55;;
13801;SDS011;6972;51.518;6.918;2022-08-05T02:05:41;10.68;;;4.93;;
13801;SDS011;6972;51.518;6.918;2022-08-05T02:08:08;7.68;;;5.65;;
13801;SDS011;6972;51.518;6.918;2022-08-05T02:10:39;11.43;;;5.93;;
13801;SDS011;6972;51.518;6.918;2022-08-05T02:13:12;8.82;;;5.40;;
13801;SDS011;6972;51.518;6.918;2022-08-05T02:15:45;9.73;;;5.70;;
13801;SDS011;6972;51.518;6.918;2022-08-05T02:18:17;8.48;;;5.63;;
13801;SDS011;6972;51.518;6.918;2022-08-05T02:20:51;7.40;;;5.40;;
13801;SDS011;6972;51.518;6.918;2022-08-05T02:23:21;13.23;;;5.88;;
13801;SDS011;6972;51.518;6.918;2022-08-05T02:25:50;9.50;;;5.93;;
13801;SDS011;6972;51.518;6.918;2022-08-05T02:28:24;11.25;;;5.88;;
13801;SDS011;6972;51.518;6.918;2022-08-05T02:30:59;8.68;;;5.97;;
13801;SDS011;6972;51.518;6.918;2022-08-05T02:33:58;11.45;;;5.68;;
13801;SDS011;6972;51.518;6.918;2022-08-05T02:36:28;9.13;;;6.07;;
13801;SDS011;6972;51.518;6.918;2022-08-05T02:38:56;9.63;;;5.85;;
13801;SDS011;6972;51.518;6.918;2022-08-05T02:41:24;10.73;;;5.97;;
13801;SDS011;6972;51.518;6.918;2022-08-05T02:43:51;8.73;;;5.70;;
13801;SDS011;6972;51.518;6.918;2022-08-05T02:46:17;11.80;;;5.82;;
13801;SDS011;6972;51.518;6.918;2022-08-05T02:48:45;11.13;;;5.90;;
13801;SDS011;6972;51.518;6.918;2022-08-05T02:51:12;11.45;;;6.00;;
13801;SDS011;6972;51.518;6.918;2022-08-05T02:53:39;10.43;;;7.00;;
13801;SDS011;6972;51.518;6.918;2022-08-05T02:56:07;11.15;;;7.32;;
13801;SDS011;6972;51.518;6.918;2022-08-05T02:58:35;11.52;;;7.32;;
13801;SDS011;6972;51.518;6.918;2022-08-05T03:01:12;13.85;;;7.03;;
13801;SDS011;6972;51.518;6.918;2022-08-05T03:03:42;9.40;;;7.03;;
13801;SDS011;6972;51.518;6.918;2022-08-05T03:06:10;12.82;;;7.35;;
13801;SDS011;6972;51.518;6.918;2022-08-05T03:08:39;10.88;;;8.13;;
13801;SDS011;6972;51.518;6.918;2022-08-05T03:11:15;11.18;;;6.75;;
13801;SDS011;6972;51.518;6.918;2022-08-05T03:13:42;11.65;;;7.57;;
13801;SDS011;6972;51.518;6.918;2022-08-05T03:16:08;11.45;;;7.35;;
13801;SDS011;6972;51.518;6.918;2022-08-05T03:18:33;18.33;;;8.23;;
13801;SDS011;6972;51.518;6.918;2022-08-05T03:20:59;12.63;;;8.32;;
13801;SDS011;6972;51.518;6.918;2022-08-05T03:23:25;17.45;;;8.02;;
13801;SDS011;6972;51.518;6.918;2022-08-05T03:25:51;14.23;;;7.97;;
13801;SDS011;6972;51.518;6.918;2022-08-05T03:28:17;14.65;;;8.30;;
13801;SDS011;6972;51.518;6.918;2022-08-05T03:30:45;13.60;;;8.52;;
13801;SDS011;6972;51.518;6.918;2022-08-05T03:33:13;12.18;;;8.48;;
13801;SDS011;6972;51.518;6.918;2022-08-05T03:35:40;16.23;;;8.23;;
13801;SDS011;6972;51.518;6.918;2022-08-05T03:38:11;14.32;;;8.07;;
13801;SDS011;6972;51.518;6.918;2022-08-05T03:40:40;12.88;;;8.50;;
13801;SDS011;6972;51.518;6.918;2022-08-05T03:43:06;16.20;;;8.70;;
13801;SDS011;6972;51.518;6.918;2022-08-05T03:45:32;13.23;;;8.40;;
13801;SDS011;6972;51.518;6.918;2022-08-05T03:47:58;15.30;;;9.35;;
13801;SDS011;6972;51.518;6.918;2022-08-05T03:50:27;15.07;;;7.88;;
13801;SDS011;6972;51.518;6.918;2022-08-05T03:53:02;14.65;;;8.85;;
13801;SDS011;6972;51.518;6.918;2022-08-05T03:55:32;13.52;;;9.07;;
13801;SDS011;6972;51.518;6.918;2022-08-05T03:58:03;15.95;;;9.55;;
13801;SDS011;6972;51.518;6.918;2022-08-05T04:00:33;13.23;;;8.52;;
13801;SDS011;6972;51.518;6.918;2022-08-05T04:03:00;14.23;;;8.98;;
13801;SDS011;6972;51.518;6.918;2022-08-05T04:05:28;13.82;;;8.98;;
13801;SDS011;6972;51.518;6.918;2022-08-05T04:07:56;18.70;;;9.38;;
13801;SDS011;6972;51.518;6.918;2022-08-05T04:10:22;12.52;;;9.27;;
13801;SDS011;6972;51.518;6.918;2022-08-05T04:12:48;16.95;;;9.55;;
13801;SDS011;6972;51.518;6.918;2022-08-05T04:15:14;14.70;;;9.98;;
13801;SDS011;6972;51.518;6.918;2022-08-05T04:17:39;17.50;;;10.13;;
13801;SDS011;6972;51.518;6.918;2022-08-05T04:20:06;14.95;;;10.35;;
13801;SDS011;6972;51.518;6.918;2022-08-05T04:22:31;15.43;;;10.48;;
13801;SDS011;6972;51.518;6.918;2022-08-05T04:24:57;17.77;;;10.93;;
13801;SDS011;6972;51.518;6.918;2022-08-05T04:27:23;15.95;;;10.27;;
13801;SDS011;6972;51.518;6.918;2022-08-05T04:29:49;14.75;;;10.65;;
13801;SDS011;6972;51.518;6.918;2022-08-05T04:32:15;16.40;;;11.20;;
13801;SDS011;6972;51.518;6.918;2022-08-05T04:34:41;16.60;;;11.55;;
13801;SDS011;6972;51.518;6.918;2022-08-05T04:37:07;15.27;;;10.88;;
13801;SDS011;6972;51.518;6.918;2022-08-05T04:39:33;18.52;;;11.73;;
13801;SDS011;6972;51.518;6.918;2022-08-05T04:41:59;20.15;;;11.18;;
13801;SDS011;6972;51.518;6.918;2022-08-05T04:44:25;16.67;;;12.20;;
13801;SDS011;6972;51.518;6.918;2022-08-05T04:46:51;14.60;;;10.98;;
13801;SDS011;6972;51.518;6.918;2022-08-05T04:49:17;21.33;;;11.27;;
13801;SDS011;6972;51.518;6.918;2022-08-05T04:51:43;19.80;;;11.23;;
13801;SDS011;6972;51.518;6.918;2022-08-05T04:54:09;17.85;;;11.45;;
13801;SDS011;6972;51.518;6.918;2022-08-05T04:56:35;19.48;;;11.60;;
13801;SDS011;6972;51.518;6.918;2022-08-05T04:59:04;17.95;;;10.65;;
13801;SDS011;6972;51.518;6.918;2022-08-05T05:01:30;16.13;;;12.02;;
13801;SDS011;6972;51.518;6.918;2022-08-05T05:03:56;16.00;;;11.85;;
13801;SDS011;6972;51.518;6.918;2022-08-05T05:06:22;18.77;;;11.52;;
13801;SDS011;6972;51.518;6.918;2022-08-05T05:08:50;18.55;;;12.35;;
13801;SDS011;6972;51.518;6.918;2022-08-05T05:11:15;16.40;;;11.50;;
13801;SDS011;6972;51.518;6.918;2022-08-05T05:13:41;16.73;;;11.80;;
13801;SDS011;6972;51.518;6.918;2022-08-05T05:16:07;21.15;;;10.88;;
13801;SDS011;6972;51.518;6.918;2022-08-05T05:18:33;16.30;;;11.60;;
13801;SDS011;6972;51.518;6.918;2022-08-05T05:20:59;19.48;;;10.80;;
13801;SDS011;6972;51.518;6.918;2022-08-05T05:23:25;16.38;;;11.02;;
13801;SDS011;6972;51.518;6.918;2022-08-05T05:25:51;14.55;;;10.75;;
13801;SDS011;6972;51.518;6.918;2022-08-05T05:28:17;19.77;;;10.45;;
13801;SDS011;6972;51.518;6.918;2022-08-05T05:30:43;19.80;;;10.93;;
13801;SDS011;6972;51.518;6.918;2022-08-05T05:33:09;18.38;;;9.80;;
13801;SDS011;6972;51.518;6.918;2022-08-05T05:35:35;17.95;;;10.75;;
13801;SDS011;6972;51.518;6.918;2022-08-05T05:38:04;20.95;;;10.65;;
13801;SDS011;6972;51.518;6.918;2022-08-05T05:40:33;14.48;;;10.23;;
13801;SDS011;6972;51.518;6.918;2022-08-05T05:42:59;17.95;;;11.00;;
13801;SDS011;6972;51.518;6.918;2022-08-05T05:45:25;18.55;;;11.00;;
13801;SDS011;6972;51.518;6.918;2022-08-05T05:47:51;16.52;;;10.65;;
13801;SDS011;6972;51.518;6.918;2022-08-05T05:50:17;19.10;;;10.18;;
13801;SDS011;6972;51.518;6.918;2022-08-05T05:52:46;22.13;;;10.82;;
13801;SDS011;6972;51.518;6.918;2022-08-05T05:55:12;17.48;;;9.20;;
13801;SDS011;6972;51.518;6.918;2022-08-05T05:57:39;16.63;;;9.88;;
13801;SDS011;6972;51.518;6.918;2022-08-05T06:00:10;17.88;;;10.35;;
13801;SDS011;6972;51.518;6.918;2022-08-05T06:02:37;16.10;;;9.68;;
13801;SDS011;6972;51.518;6.918;2022-08-05T06:05:05;20.80;;;11.10;;
13801;SDS011;6972;51.518;6.918;2022-08-05T06:07:32;16.02;;;10.25;;
13801;SDS011;6972;51.518;6.918;2022-08-05T06:09:58;14.07;;;10.48;;
13801;SDS011;6972;51.518;6.918;2022-08-05T06:12:23;16.55;;;10.50;;
13801;SDS011;6972;51.518;6.918;2022-08-05T06:14:49;21.08;;;12.25;;
13801;SDS011;6972;51.518;6.918;2022-08-05T06:17:15;22.58;;;12.02;;
13801;SDS011;6972;51.518;6.918;2022-08-05T06:19:41;19.50;;;11.50;;
13801;SDS011;6972;51.518;6.918;2022-08-05T06:22:07;19.88;;;11.15;;
13801;SDS011;6972;51.518;6.918;2022-08-05T06:24:33;17.80;;;10.05;;
13801;SDS011;6972;51.518;6.918;2022-08-05T06:27:00;21.38;;;9.65;;
13801;SDS011;6972;51.518;6.918;2022-08-05T06:29:26;15.95;;;9.57;;
13801;SDS011;6972;51.518;6.918;2022-08-05T06:31:52;15.10;;;9.68;;
13801;SDS011;6972;51.518;6.918;2022-08-05T06:34:17;13.48;;;9.40;;
13801;SDS011;6972;51.518;6.918;2022-08-05T06:36:43;19.60;;;10.00;;
13801;SDS011;6972;51.518;6.918;2022-08-05T06:39:09;14.80;;;9.05;;
13801;SDS011;6972;51.518;6.918;2022-08-05T06:41:38;15.65;;;9.00;;
13801;SDS011;6972;51.518;6.918;2022-08-05T06:44:04;14.88;;;9.52;;
13801;SDS011;6972;51.518;6.918;2022-08-05T06:46:30;16.38;;;8.82;;
13801;SDS011;6972;51.518;6.918;2022-08-05T06:48:56;13.10;;;8.23;;
13801;SDS011;6972;51.518;6.918;2022-08-05T06:51:22;16.65;;;8.38;;
13801;SDS011;6972;51.518;6.918;2022-08-05T06:53:49;14.60;;;8.70;;
13801;SDS011;6972;51.518;6.918;2022-08-05T06:56:14;12.85;;;8.27;;
13801;SDS011;6972;51.518;6.918;2022-08-05T06:58:40;16.02;;;8.02;;
13801;SDS011;6972;51.518;6.918;2022-08-05T07:01:06;13.15;;;7.55;;
13801;SDS011;6972;51.518;6.918;2022-08-05T07:03:32;14.32;;;8.13;;
13801;SDS011;6972;51.518;6.918;2022-08-05T07:05:58;13.88;;;7.57;;
13801;SDS011;6972;51.518;6.918;2022-08-05T07:08:28;14.57;;;8.05;;
13801;SDS011;6972;51.518;6.918;2022-08-05T07:10:54;13.27;;;8.23;;
13801;SDS011;6972;51.518;6.918;2022-08-05T07:13:21;11.90;;;7.95;;
13801;SDS011;6972;51.518;6.918;2022-08-05T07:16:06;14.38;;;7.47;;
13801;SDS011;6972;51.518;6.918;2022-08-05T07:18:51;15.32;;;7.13;;
13801;SDS011;6972;51.518;6.918;2022-08-05T07:21:16;10.88;;;7.32;;
13801;SDS011;6972;51.518;6.918;2022-08-05T07:23:42;12.00;;;6.88;;
13801;SDS011;6972;51.518;6.918;2022-08-05T07:26:08;11.40;;;6.75;;
13801;SDS011;6972;51.518;6.918;2022-08-05T07:28:34;10.27;;;6.57;;
13801;SDS011;6972;51.518;6.918;2022-08-05T07:30:59;11.48;;;6.43;;
13801;SDS011;6972;51.518;6.918;2022-08-05T07:33:25;9.90;;;6.55;;
13801;SDS011;6972;51.518;6.918;2022-08-05T07:35:51;11.45;;;6.25;;
13801;SDS011;6972;51.518;6.918;2022-08-05T07:38:17;13.15;;;6.70;;
13801;SDS011;6972;51.518;6.918;2022-08-05T07:40:43;12.45;;;6.43;;
13801;SDS011;6972;51.518;6.918;2022-08-05T07:43:09;9.40;;;5.68;;
13801;SDS011;6972;51.518;6.918;2022-08-05T07:45:35;10.07;;;5.68;;
13801;SDS011;6972;51.518;6.918;2022-08-05T07:48:01;13.50;;;5.00;;
13801;SDS011;6972;51.518;6.918;2022-08-05T07:50:28;7.72;;;5.50;;
13801;SDS011;6972;51.518;6.918;2022-08-05T07:52:53;11.73;;;5.65;;
13801;SDS011;6972;51.518;6.918;2022-08-05T07:55:20;9.90;;;5.50;;
13801;SDS011;6972;51.518;6.918;2022-08-05T07:57:46;11.88;;;6.32;;
13801;SDS011;6972;51.518;6.918;2022-08-05T08:00:11;8.82;;;5.80;;
13801;SDS011;6972;51.518;6.918;2022-08-05T08:02:38;11.95;;;5.80;;
13801;SDS011;6972;51.518;6.918;2022-08-05T08:05:05;11.55;;;5.95;;
13801;SDS011;6972;51.518;6.918;2022-08-05T08:07:31;16.83;;;5.80;;
13801;SDS011;6972;51.518;6.918;2022-08-05T08:09:57;8.85;;;5.00;;
13801;SDS011;6972;51.518;6.918;2022-08-05T08:12:23;10.77;;;5.72;;
13801;SDS011;6972;51.518;6.918;2022-08-05T08:14:49;12.45;;;5.72;;
13801;SDS011;6972;51.518;6.918;2022-08-05T08:17:15;8.80;;;4.60;;
13801;SDS011;6972;51.518;6.918;2022-08-05T08:19:41;10.90;;;5.35;;
13801;SDS011;6972;51.518;6.918;2022-08-05T08:22:08;11.15;;;5.40;;
13801;SDS011;6972;51.518;6.918;2022-08-05T08:24:34;10.77;;;5.32;;
13801;SDS011;6972;51.518;6.918;2022-08-05T08:27:03;12.93;;;6.30;;
13801;SDS011;6972;51.518;6.918;2022-08-05T08:29:29;12.70;;;5.93;;
13801;SDS011;6972;51.518;6.918;2022-08-05T08:31:55;14.20;;;5.70;;
13801;SDS011;6972;51.518;6.918;2022-08-05T08:34:22;10.43;;;5.60;;
13801;SDS011;6972;51.518;6.918;2022-08-05T08:36:49;9.50;;;4.95;;
13801;SDS011;6972;51.518;6.918;2022-08-05T08:39:15;9.93;;;5.10;;
13801;SDS011;6972;51.518;6.918;2022-08-05T08:41:42;9.32;;;5.20;;
13801;SDS011;6972;51.518;6.918;2022-08-05T08:44:11;8.23;;;5.05;;
13801;SDS011;6972;51.518;6.918;2022-08-05T08:46:39;7.78;;;4.47;;
13801;SDS011;6972;51.518;6.918;2022-08-05T08:49:05;9.00;;;4.65;;
13801;SDS011;6972;51.518;6.918;2022-08-05T08:51:32;10.32;;;4.40;;
13801;SDS011;6972;51.518;6.918;2022-08-05T08:53:59;9.70;;;4.85;;
13801;SDS011;6972;51.518;6.918;2022-08-05T08:56:25;8.05;;;4.65;;
13801;SDS011;6972;51.518;6.918;2022-08-05T08:58:51;8.07;;;4.78;;
13801;SDS011;6972;51.518;6.918;2022-08-05T09:01:17;8.40;;;5.13;;
13801;SDS011;6972;51.518;6.918;2022-08-05T09:03:51;11.52;;;4.20;;
13801;SDS011;6972;51.518;6.918;2022-08-05T09:06:18;7.97;;;4.60;;
13801;SDS011;6972;51.518;6.918;2022-08-05T09:08:44;7.95;;;4.65;;
13801;SDS011;6972;51.518;6.918;2022-08-05T09:11:10;8.13;;;4.68;;
13801;SDS011;6972;51.518;6.918;2022-08-05T09:13:36;12.63;;;4.72;;
13801;SDS011;6972;51.518;6.918;2022-08-05T09:16:03;8.25;;;4.75;;
13801;SDS011;6972;51.518;6.918;2022-08-05T09:18:29;16.08;;;4.95;;
13801;SDS011;6972;51.518;6.918;2022-08-05T09:20:54;16.20;;;4.97;;
13801;SDS011;6972;51.518;6.918;2022-08-05T09:23:20;6.25;;;4.22;;
13801;SDS011;6972;51.518;6.918;2022-08-05T09:25:47;9.60;;;4.03;;
13801;SDS011;6972;51.518;6.918;2022-08-05T09:28:19;10.38;;;4.18;;
13801;SDS011;6972;51.518;6.918;2022-08-05T09:31:00;8.93;;;4.53;;
13801;SDS011;6972;51.518;6.918;2022-08-05T09:33:28;9.80;;;4.35;;
13801;SDS011;6972;51.518;6.918;2022-08-05T09:35:58;8.27;;;3.92;;
13801;SDS011;6972;51.518;6.918;2022-08-05T09:38:29;8.20;;;3.88;;
13801;SDS011;6972;51.518;6.918;2022-08-05T09:41:06;10.48;;;4.20;;
13801;SDS011;6972;51.518;6.918;2022-08-05T09:43:34;9.70;;;4.43;;
13801;SDS011;6972;51.518;6.918;2022-08-05T09:46:04;8.57;;;4.15;;
13801;SDS011;6972;51.518;6.918;2022-08-05T09:48:38;8.70;;;3.90;;
13801;SDS011;6972;51.518;6.918;2022-08-05T09:51:05;9.75;;;3.60;;
13801;SDS011;6972;51.518;6.918;2022-08-05T09:53:49;11.05;;;3.92;;
13801;SDS011;6972;51.518;6.918;2022-08-05T09:56:28;6.55;;;3.60;;
13801;SDS011;6972;51.518;6.918;2022-08-05T09:58:58;8.68;;;4.40;;
13801;SDS011;6972;51.518;6.918;2022-08-05T10:01:28;7.43;;;3.40;;
13801;SDS011;6972;51.518;6.918;2022-08-05T10:04:04;9.88;;;4.25;;
13801;SDS011;6972;51.518;6.918;2022-08-05T10:06:34;10.88;;;3.60;;
13801;SDS011;6972;51.518;6.918;2022-08-05T10:11:43;7.78;;;3.30;;
13801;SDS011;6972;51.518;6.918;2022-08-05T10:14:25;5.88;;;3.08;;
13801;SDS011;6972;51.518;6.918;2022-08-05T10:16:53;5.18;;;3.08;;
13801;SDS011;6972;51.518;6.918;2022-08-05T10:19:20;5.80;;;3.05;;
13801;SDS011;6972;51.518;6.918;2022-08-05T10:21:50;5.40;;;2.78;;
13801;SDS011;6972;51.518;6.918;2022-08-05T10:24:16;6.03;;;2.97;;
13801;SDS011;6972;51.518;6.918;2022-08-05T10:26:43;6.38;;;3.22;;
13801;SDS011;6972;51.518;6.918;2022-08-05T10:29:10;4.72;;;2.63;;
13801;SDS011;6972;51.518;6.918;2022-08-05T10:31:36;6.65;;;3.08;;
13801;SDS011;6972;51.518;6.918;2022-08-05T10:34:05;4.47;;;2.75;;
13801;SDS011;6972;51.518;6.918;2022-08-05T10:36:33;4.82;;;3.13;;
13801;SDS011;6972;51.518;6.918;2022-08-05T10:39:37;6.43;;;3.25;;
13801;SDS011;6972;51.518;6.918;2022-08-05T10:41:58;10.65;;;3.50;;
13801;SDS011;6972;51.518;6.918;2022-08-05T10:44:37;10.70;;;3.00;;
13801;SDS011;6972;51.518;6.918;2022-08-05T10:47:10;7.78;;;2.60;;
13801;SDS011;6972;51.518;6.918;2022-08-05T10:55:08;6.82;;;2.50;;
13801;SDS011;6972;51.518;6.918;2022-08-05T10:57:35;7.72;;;2.90;;
13801;SDS011;6972;51.518;6.918;2022-08-05T11:00:19;7.53;;;2.42;;
13801;SDS011;6972;51.518;6.918;2022-08-05T11:05:34;7.32;;;2.47;;
13801;SDS011;6972;51.518;6.918;2022-08-05T11:08:02;4.55;;;2.65;;
13801;SDS011;6972;51.518;6.918;2022-08-05T11:10:30;6.63;;;2.45;;
13801;SDS011;6972;51.518;6.918;2022-08-05T11:12:57;5.85;;;2.85;;
13801;SDS011;6972;51.518;6.918;2022-08-05T11:15:27;10.13;;;2.88;;
13801;SDS011;6972;51.518;6.918;2022-08-05T11:20:49;6.40;;;2.83;;
13801;SDS011;6972;51.518;6.918;2022-08-05T11:26:19;4.28;;;2.45;;
13801;SDS011;6972;51.518;6.918;2022-08-05T11:28:50;11.20;;;3.30;;
13801;SDS011;6972;51.518;6.918;2022-08-05T11:31:18;7.40;;;3.05;;
13801;SDS011;6972;51.518;6.918;2022-08-05T11:36:16;6.68;;;3.05;;
13801;SDS011;6972;51.518;6.918;2022-08-05T11:39:02;5.28;;;2.80;;
13801;SDS011;6972;51.518;6.918;2022-08-05T11:41:29;5.65;;;3.22;;
13801;SDS011;6972;51.518;6.918;2022-08-05T11:43:59;6.97;;;2.80;;
13801;SDS011;6972;51.518;6.918;2022-08-05T11:46:30;7.63;;;3.00;;
13801;SDS011;6972;51.518;6.918;2022-08-05T11:48:56;6.40;;;3.03;;
13801;SDS011;6972;51.518;6.918;2022-08-05T11:51:24;6.55;;;3.10;;
13801;SDS011;6972;51.518;6.918;2022-08-05T11:53:51;5.10;;;3.25;;
13801;SDS011;6972;51.518;6.918;2022-08-05T11:56:17;8.10;;;3.20;;
13801;SDS011;6972;51.518;6.918;2022-08-05T11:58:43;6.88;;;3.03;;
13801;SDS011;6972;51.518;6.918;2022-08-05T12:01:15;6.63;;;3.00;;
13801;SDS011;6972;51.518;6.918;2022-08-05T12:03:50;5.57;;;2.78;;
13801;SDS011;6972;51.518;6.918;2022-08-05T12:06:17;5.95;;;2.85;;
13801;SDS011;6972;51.518;6.918;2022-08-05T12:08:45;6.93;;;3.05;;
13801;SDS011;6972;51.518;6.918;2022-08-05T12:11:19;7.38;;;2.78;;
13801;SDS011;6972;51.518;6.918;2022-08-05T12:16:24;5.05;;;2.60;;
13801;SDS011;6972;51.518;6.918;2022-08-05T12:19:11;4.50;;;2.63;;
13801;SDS011;6972;51.518;6.918;2022-08-05T12:21:41;6.50;;;2.50;;
13801;SDS011;6972;51.518;6.918;2022-08-05T12:24:11;8.07;;;2.80;;
13801;SDS011;6972;51.518;6.918;2022-08-05T12:26:46;5.28;;;2.28;;
13801;SDS011;6972;51.518;6.918;2022-08-05T12:31:43;5.25;;;2.80;;
13801;SDS011;6972;51.518;6.918;2022-08-05T12:34:33;4.32;;;2.58;;
13801;SDS011;6972;51.518;6.918;2022-08-05T12:37:05;7.88;;;2.55;;
13801;SDS011;6972;51.518;6.918;2022-08-05T12:39:38;6.15;;;2.80;;
13801;SDS011;6972;51.518;6.918;2022-08-05T12:42:09;3.78;;;2.70;;
13801;SDS011;6972;51.518;6.918;2022-08-05T12:44:36;10.13;;;2.55;;
13801;SDS011;6972;51.518;6.918;2022-08-05T12:47:02;7.22;;;2.97;;
13801;SDS011;6972;51.518;6.918;2022-08-05T12:52:24;6.65;;;2.58;;
13801;SDS011;6972;51.518;6.918;2022-08-05T12:54:50;10.82;;;2.80;;
13801;SDS011;6972;51.518;6.918;2022-08-05T12:57:16;6.75;;;3.20;;
13801;SDS011;6972;51.518;6.918;2022-08-05T12:59:50;5.75;;;2.47;;
13801;SDS011;6972;51.518;6.918;2022-08-05T13:02:20;5.15;;;2.50;;
13801;SDS011;6972;51.518;6.918;2022-08-05T13:04:51;5.55;;;2.78;;
13801;SDS011;6972;51.518;6.918;2022-08-05T13:07:18;7.15;;;1.88;;
13801;SDS011;6972;51.518;6.918;2022-08-05T13:09:53;2.85;;;1.60;;
13801;SDS011;6972;51.518;6.918;2022-08-05T13:12:21;5.40;;;1.70;;
13801;SDS011;6972;51.518;6.918;2022-08-05T13:17:19;5.80;;;1.90;;
13801;SDS011;6972;51.518;6.918;2022-08-05T13:22:46;3.25;;;1.80;;
13801;SDS011;6972;51.518;6.918;2022-08-05T13:25:15;5.72;;;1.75;;
13801;SDS011;6972;51.518;6.918;2022-08-05T13:30:17;6.00;;;1.90;;
13801;SDS011;6972;51.518;6.918;2022-08-05T13:32:45;6.13;;;1.80;;
13801;SDS011;6972;51.518;6.918;2022-08-05T13:35:14;4.45;;;1.60;;
13801;SDS011;6972;51.518;6.918;2022-08-05T13:37:40;3.60;;;1.83;;
13801;SDS011;6972;51.518;6.918;2022-08-05T13:40:06;10.38;;;1.60;;
13801;SDS011;6972;51.518;6.918;2022-08-05T13:42:33;4.93;;;1.73;;
13801;SDS011;6972;51.518;6.918;2022-08-05T13:44:59;4.65;;;1.50;;
13801;SDS011;6972;51.518;6.918;2022-08-05T13:47:24;4.47;;;1.45;;
13801;SDS011;6972;51.518;6.918;2022-08-05T13:49:50;2.47;;;1.40;;
13801;SDS011;6972;51.518;6.918;2022-08-05T13:54:42;3.50;;;1.58;;
13801;SDS011;6972;51.518;6.918;2022-08-05T13:57:09;2.95;;;1.58;;
13801;SDS011;6972;51.518;6.918;2022-08-05T13:59:36;4.68;;;1.63;;
13801;SDS011;6972;51.518;6.918;2022-08-05T14:02:03;3.55;;;1.80;;
13801;SDS011;6972;51.518;6.918;2022-08-05T14:04:31;4.32;;;1.60;;
13801;SDS011;6972;51.518;6.918;2022-08-05T14:07:27;3.15;;;1.63;;
13801;SDS011;6972;51.518;6.918;2022-08-05T14:09:57;3.70;;;1.70;;
13801;SDS011;6972;51.518;6.918;2022-08-05T14:12:23;2.60;;;1.30;;
13801;SDS011;6972;51.518;6.918;2022-08-05T14:14:49;4.93;;;1.67;;
13801;SDS011;6972;51.518;6.918;2022-08-05T14:17:16;3.28;;;1.30;;
13801;SDS011;6972;51.518;6.918;2022-08-05T14:19:42;3.03;;;1.30;;
13801;SDS011;6972;51.518;6.918;2022-08-05T14:22:08;4.20;;;1.20;;
13801;SDS011;6972;51.518;6.918;2022-08-05T14:24:34;4.30;;;1.05;;
13801;SDS011;6972;51.518;6.918;2022-08-05T14:27:01;7.40;;;1.63;;
13801;SDS011;6972;51.518;6.918;2022-08-05T14:29:26;5.90;;;1.42;;
13801;SDS011;6972;51.518;6.918;2022-08-05T14:31:52;2.15;;;1.30;;
13801;SDS011;6972;51.518;6.918;2022-08-05T14:34:18;3.17;;;1.30;;
13801;SDS011;6972;51.518;6.918;2022-08-05T14:36:44;4.88;;;1.58;;
13801;SDS011;6972;51.518;6.918;2022-08-05T14:39:09;4.78;;;1.40;;
13801;SDS011;6972;51.518;6.918;2022-08-05T14:41:37;3.40;;;1.25;;
13801;SDS011;6972;51.518;6.918;2022-08-05T14:44:03;2.55;;;1.17;;
13801;SDS011;6972;51.518;6.918;2022-08-05T14:46:29;9.52;;;1.42;;
13801;SDS011;6972;51.518;6.918;2022-08-05T14:48:56;4.88;;;1.50;;
13801;SDS011;6972;51.518;6.918;2022-08-05T14:51:23;3.85;;;1.83;;
13801;SDS011;6972;51.518;6.918;2022-08-05T14:53:50;8.07;;;3.17;;
13801;SDS011;6972;51.518;6.918;2022-08-05T14:56:16;5.82;;;2.40;;
13801;SDS011;6972;51.518;6.918;2022-08-05T14:58:42;4.68;;;2.08;;
13801;SDS011;6972;51.518;6.918;2022-08-05T15:01:07;3.45;;;1.55;;
13801;SDS011;6972;51.518;6.918;2022-08-05T15:03:34;2.45;;;1.33;;
13801;SDS011;6972;51.518;6.918;2022-08-05T15:06:03;4.90;;;1.50;;
13801;SDS011;6972;51.518;6.918;2022-08-05T15:08:29;1.67;;;1.13;;
13801;SDS011;6972;51.518;6.918;2022-08-05T15:10:54;6.68;;;1.27;;
13801;SDS011;6972;51.518;6.918;2022-08-05T15:13:20;2.53;;;1.17;;
13801;SDS011;6972;51.518;6.918;2022-08-05T15:15:46;3.13;;;1.20;;
13801;SDS011;6972;51.518;6.918;2022-08-05T15:18:12;2.85;;;1.15;;
13801;SDS011;6972;51.518;6.918;2022-08-05T15:20:38;1.80;;;1.05;;
13801;SDS011;6972;51.518;6.918;2022-08-05T15:23:04;1.67;;;1.10;;
13801;SDS011;6972;51.518;6.918;2022-08-05T15:25:31;1.38;;;0.90;;
13801;SDS011;6972;51.518;6.918;2022-08-05T15:27:57;2.45;;;0.98;;
13801;SDS011;6972;51.518;6.918;2022-08-05T15:30:23;2.88;;;1.13;;
13801;SDS011;6972;51.518;6.918;2022-08-05T15:32:48;2.72;;;1.23;;
13801;SDS011;6972;51.518;6.918;2022-08-05T15:35:14;2.30;;;1.00;;
13801;SDS011;6972;51.518;6.918;2022-08-05T15:37:40;3.58;;;1.20;;
13801;SDS011;6972;51.518;6.918;2022-08-05T15:40:06;4.68;;;1.02;;
13801;SDS011;6972;51.518;6.918;2022-08-05T15:42:32;9.55;;;1.20;;
13801;SDS011;6972;51.518;6.918;2022-08-05T15:44:58;3.83;;;1.00;;
13801;SDS011;6972;51.518;6.918;2022-08-05T15:47:24;3.40;;;1.00;;
13801;SDS011;6972;51.518;6.918;2022-08-05T15:49:49;3.30;;;1.00;;